TFM - Tactical Decision Aid
ID: Runway Winds: CIG/VIS Threshold:

KGTR - Golden Triangle Arpt, MS, US

Updated at: 1329 UTC 10 Jul 2020
Latest TAF at: 1120 UTC 10 Jul 2020

TAF Board

Time1256Z 10/14Z 10/15Z 10/16Z 10/17Z 10/18Z 10/19Z 10/20Z 10/21Z 10/22Z 10/23Z 11/00Z 11/01Z 11/02Z>>
Type OBS PRVL PRVL PRVL PRVL PRVL PRVL PRVL PRVL PRVL PRVL PRVL PRVL PRVL
VIS 10 >6 >6 >6 >6 >6 >6 >6 >6 >6 >6 >6 >6 >6
CIG -- -- -- -- -- -- -- -- -- -- -- -- -- --
Cover CLR SCT SCT SCT SCT SCT SCT SCT SCT SCT SCT SCT SCT SCT
FltCat VFR VFR VFR VFR VFR VFR VFR VFR VFR VFR VFR VFR VFR VFR
WX -- -- -- -- -- -- -- -- -- -- -- -- -- --
WDir VRB 310 310 310 310 310 310 310 310 310 310 310 310 310
WSpd 0 9 9 9 9 9 9 9 9 9 9 9 9 9
WGst -- -- -- -- -- -- -- -- -- -- -- -- -- --

TDA Impact Legend

  None Marginal Slight Moderate High
Visibility (sm) >5 3≤X≤5 2≤X<3 0.5≤X<2 <0.5
Ceiling (100 ft) >30 10≤X≤30 6≤X<10 2≤X<6 <2
Wind Speed (kt) <15 15≤X<25 25≤X<30 ≥30
Wind Gust (kt) <15 15≤X<25 25≤X<35 ≥35
Weather No Wx Reported VCTS -TS,-FZRA TS,FZRA +TS,+FZRA
TAF
KGTR 101120Z 1012/1112 31009KT P6SM SCT250

METAR
KGTR 101256Z 00000KT 10SM CLR 25/24 A2998 RMK AO2 SLP158 T02500244 PNO $
KGTR 101156Z 00000KT 10SM CLR 23/23 A2998 RMK AO2 SLP157 6//// 7//// T02280228 10228 20217 53009 PNO $
KGTR 101056Z 00000KT 9SM CLR 22/22 A2997 RMK AO2 SLP154 T02170217 PNO $

Radar Display
Forecast Discussion